^^
Station Historical Data
Daily Summary for May 7, 2017 Units:  English    Metric   Both
« Previous Day
Next Day »
Daily Weekly Monthly Yearly Custom
  High: Low: Average:
Temperature: 53.5 °F 45.5 °F 49.7 °F
Dew Point: 47.1 °F 38.0 °F 42.7 °F
Humidity: 90% 64% 77%
Wind Speed: 7.0mph 1.0mph 3.3mph
Wind Gust: 16.0mph - -
Wind- - SSW
Pressure: 29.80 in 29.48 in -
Precipitation: 0.01 in    
Historical Graphs
 
 
Tabular Data for May 7, 2017
Time Temperature Dew Point Pressure Wind Wind Speed Wind Gust Humidity Rainfall Rate (Hourly) Conditions
00:00 50.8 °F 47.1 °F 29.48 in SSW 5.0 mph 12.0 mph 87% 0.00 in BKN
00:15 50.6 °F 46.9 °F 29.49 in South 3.0 mph 12.0 mph 87% 0.00 in BKN
00:30 50.4 °F 46.7 °F 29.49 in SSW 5.0 mph 13.0 mph 87% 0.00 in BKN
00:45 50.4 °F 46.7 °F 29.49 in SSW 5.0 mph 12.0 mph 87% 0.00 in BKN
01:00 50.2 °F 46.5 °F 29.49 in SSW 3.0 mph 10.0 mph 87% 0.00 in BKN
02:15 49.8 °F 46.1 °F 29.51 in SSW 3.0 mph 12.0 mph 87% 0.00 in FEW
02:30 50.1 °F 46.4 °F 29.52 in South 5.0 mph 12.0 mph 87% 0.00 in FEW
02:45 50.2 °F 46.5 °F 29.52 in South 3.0 mph 13.0 mph 87% 0.00 in FEW
03:00 49.8 °F 46.4 °F 29.52 in SSW 3.0 mph 13.0 mph 88% 0.00 in FEW
03:15 49.3 °F 46.5 °F 29.53 in SSW 5.0 mph 10.0 mph 90% 0.00 in BKN
03:30 49.7 °F 46.6 °F 29.53 in SSW 5.0 mph 12.0 mph 89% 0.00 in BKN
03:45 50.1 °F 46.1 °F 29.54 in SSW 7.0 mph 12.0 mph 86% 0.00 in BKN
04:00 50.3 °F 46.0 °F 29.54 in South 7.0 mph 16.0 mph 85% 0.00 in BKN
04:15 50.3 °F 45.6 °F 29.55 in SW 7.0 mph 12.0 mph 84% 0.00 in BKN
04:30 50.1 °F 45.8 °F 29.55 in SSW 5.0 mph 14.0 mph 85% 0.00 in BKN
04:45 50.1 °F 45.5 °F 29.56 in SW 3.0 mph 13.0 mph 84% 0.00 in BKN
05:00 50.0 °F 45.0 °F 29.55 in SW 3.0 mph 16.0 mph 83% 0.00 in BKN
05:15 49.9 °F 44.9 °F 29.56 in SSW 6.0 mph 15.0 mph 83% 0.00 in SCT
05:30 49.5 °F 44.9 °F 29.57 in SW 3.0 mph 9.0 mph 84% 0.00 in SCT
05:45 49.4 °F 44.8 °F 29.57 in SSW 2.0 mph 9.0 mph 84% 0.00 in SCT
06:00 49.2 °F 44.9 °F 29.57 in South 5.0 mph 10.0 mph 85% 0.00 in SCT
06:15 49.3 °F 44.7 °F 29.58 in SW 3.0 mph 12.0 mph 84% 0.00 in BKN
06:30 49.0 °F 44.4 °F 29.58 in South 5.0 mph 12.0 mph 84% 0.00 in BKN
06:45 48.9 °F 44.3 °F 29.59 in South 2.0 mph 12.0 mph 84% 0.00 in BKN
07:00 49.0 °F 44.4 °F 29.60 in SSW 6.0 mph 14.0 mph 84% 0.00 in BKN
07:15 49.3 °F 44.4 °F 29.61 in SSW 5.0 mph 12.0 mph 83% 0.00 in SCT
07:30 49.7 °F 44.1 °F 29.62 in SSW 2.0 mph 12.0 mph 81% 0.00 in SCT
07:45 49.4 °F 43.2 °F 29.62 in SW 2.0 mph 12.0 mph 79% 0.00 in SCT
08:00 49.6 °F 43.7 °F 29.63 in SW 1.0 mph 7.0 mph 80% 0.00 in SCT
08:15 50.9 °F 43.2 °F 29.63 in SW 6.0 mph 15.0 mph 75% 0.00 in BKN
08:30 51.0 °F 43.4 °F 29.63 in SSW 3.0 mph 14.0 mph 75% 0.00 in BKN
08:45 52.3 °F 43.5 °F 29.63 in SSW 6.0 mph 12.0 mph 72% 0.00 in BKN
09:00 52.4 °F 42.9 °F 29.64 in SSW 5.0 mph 13.0 mph 70% 0.00 in BKN
09:15 51.9 °F 42.4 °F 29.64 in SW 5.0 mph 13.0 mph 70% 0.00 in BKN
09:30 51.0 °F 42.0 °F 29.64 in SW 6.0 mph 12.0 mph 71% 0.00 in BKN
09:45 51.8 °F 41.6 °F 29.65 in SW 5.0 mph 12.0 mph 68% 0.00 in BKN
10:00 52.2 °F 42.0 °F 29.64 in SSW 7.0 mph 12.0 mph 68% 0.00 in BKN
10:15 52.5 °F 41.1 °F 29.65 in SSE 6.0 mph 14.0 mph 65% 0.00 in BKN
10:30 52.3 °F 41.7 °F 29.65 in SSW 2.0 mph 15.0 mph 67% 0.00 in BKN
10:45 51.7 °F 41.8 °F 29.66 in SSW 3.0 mph 12.0 mph 69% 0.00 in BKN
11:00 52.2 °F 42.0 °F 29.66 in SSW 2.0 mph 10.0 mph 68% 0.00 in BKN
11:15 52.4 °F 42.1 °F 29.67 in SSW 5.0 mph 12.0 mph 68% 0.00 in BKN
11:30 52.9 °F 41.4 °F 29.66 in SSW 7.0 mph 12.0 mph 65% 0.00 in BKN
11:45 52.8 °F 41.0 °F 29.66 in South 5.0 mph 12.0 mph 64% 0.00 in BKN
12:00 52.7 °F 41.6 °F 29.66 in South 2.0 mph 14.0 mph 66% 0.00 in BKN
12:15 53.5 °F 42.4 °F 29.66 in South 5.0 mph 10.0 mph 66% 0.00 in BKN
12:30 53.2 °F 42.1 °F 29.65 in WSW 5.0 mph 14.0 mph 66% 0.00 in BKN
12:45 52.6 °F 41.6 °F 29.65 in SSW 6.0 mph 12.0 mph 66% 0.00 in BKN
13:15 52.0 °F 42.1 °F 29.65 in SSW 3.0 mph 9.0 mph 69% 0.00 in BKN
13:30 51.6 °F 42.1 °F 29.65 in SSW 2.0 mph 12.0 mph 70% 0.00 in BKN
13:45 51.9 °F 42.4 °F 29.65 in SSW 2.0 mph 6.0 mph 70% 0.00 in BKN
14:00 52.4 °F 42.1 °F 29.65 in SSW 1.0 mph 9.0 mph 68% 0.00 in BKN
14:15 52.3 °F 42.4 °F 29.66 in SW 3.0 mph 8.0 mph 69% 0.00 in BKN
14:30 50.3 °F 44.1 °F 29.66 in SSW 1.0 mph 12.0 mph 79% 0.00 in BKN
14:45 50.3 °F 44.0 °F 29.66 in SSW 1.0 mph 6.0 mph 79% 0.00 in BKN
15:00 50.9 °F 43.6 °F 29.66 in SW 1.0 mph 5.0 mph 76% 0.00 in BKN
15:15 51.1 °F 43.1 °F 29.66 in SSW 5.0 mph 12.0 mph 74% 0.00 in -RA
15:30 51.5 °F 43.5 °F 29.65 in SSW 1.0 mph 13.0 mph 74% 0.00 in -RA
15:45 52.3 °F 44.2 °F 29.66 in SSW 1.0 mph 10.0 mph 74% 0.00 in -RA
16:00 52.0 °F 42.9 °F 29.66 in WSW 1.0 mph 12.0 mph 71% 0.00 in -RA
16:15 51.5 °F 42.0 °F 29.66 in SW 2.0 mph 8.0 mph 70% 0.00 in -RA
16:30 49.1 °F 43.2 °F 29.67 in SW 2.0 mph 13.0 mph 80% 0.00 in -RA
16:45 49.2 °F 42.9 °F 29.67 in SSW 3.0 mph 9.0 mph 79% 0.01 in -RA
17:00 49.4 °F 43.5 °F 29.68 in SW 3.0 mph 8.0 mph 80% 0.00 in -RA
17:15 49.0 °F 43.1 °F 29.68 in WNW 1.0 mph 7.0 mph 80% 0.00 in -RA
17:30 48.2 °F 43.0 °F 29.69 in ENE 2.0 mph 6.0 mph 82% 0.00 in -RA
17:45 48.2 °F 42.6 °F 29.70 in SSW 2.0 mph 12.0 mph 81% 0.00 in -RA
18:00 48.3 °F 40.7 °F 29.70 in West 5.0 mph 12.0 mph 75% 0.00 in -RA
18:15 48.2 °F 40.6 °F 29.71 in North 2.0 mph 8.0 mph 75% 0.00 in -RA
18:30 48.1 °F 41.2 °F 29.71 in SE 1.0 mph 9.0 mph 77% 0.00 in -RA
18:45 48.1 °F 40.5 °F 29.72 in SSE 1.0 mph 7.0 mph 75% 0.00 in -RA
19:00 48.1 °F 40.5 °F 29.72 in SSE 1.0 mph 12.0 mph 75% 0.00 in -RA
19:15 47.8 °F 40.3 °F 29.73 in SSW 3.0 mph 9.0 mph 75% 0.00 in SCT
19:30 47.4 °F 40.2 °F 29.73 in South 2.0 mph 8.0 mph 76% 0.00 in SCT
19:45 47.0 °F 39.8 °F 29.74 in SW 2.0 mph 8.0 mph 76% 0.00 in SCT
20:00 46.5 °F 39.3 °F 29.74 in SSE 1.0 mph 9.0 mph 76% 0.00 in SCT
20:15 46.3 °F 39.5 °F 29.75 in WSW 2.0 mph 6.0 mph 77% 0.00 in FEW
20:30 46.3 °F 39.8 °F 29.76 in South 1.0 mph 4.0 mph 78% 0.00 in FEW
20:45 46.5 °F 39.7 °F 29.77 in SSW 2.0 mph 9.0 mph 77% 0.00 in FEW
21:00 46.4 °F 39.6 °F 29.78 in South 2.0 mph 10.0 mph 77% 0.00 in FEW
21:15 46.4 °F 39.6 °F 29.78 in South 2.0 mph 12.0 mph 77% 0.00 in SCT
21:30 46.3 °F 39.4 °F 29.79 in SW 2.0 mph 12.0 mph 77% 0.00 in SCT
21:45 46.1 °F 39.3 °F 29.79 in South 1.0 mph 8.0 mph 77% 0.00 in SCT
22:00 45.8 °F 39.0 °F 29.79 in SSE 3.0 mph 8.0 mph 77% 0.00 in SCT
22:15 45.8 °F 39.0 °F 29.79 in SW 2.0 mph 12.0 mph 77% 0.00 in BKN
22:30 45.8 °F 38.3 °F 29.80 in WSW 5.0 mph 12.0 mph 75% 0.00 in BKN
22:45 45.9 °F 38.8 °F 29.80 in SW 2.0 mph 12.0 mph 76% 0.00 in BKN
23:00 45.9 °F 38.7 °F 29.80 in SW 2.0 mph 10.0 mph 76% 0.00 in BKN
23:15 45.7 °F 38.3 °F 29.80 in SW 1.0 mph 13.0 mph 75% 0.00 in BKN
23:30 45.6 °F 38.1 °F 29.79 in SW 5.0 mph 12.0 mph 75% 0.00 in BKN
23:45 45.5 °F 38.0 °F 29.80 in SSE 2.0 mph 9.0 mph 75% 0.00 in BKN
TarryTown NY Weather
Compliments of Weather Underground - 1.5 mb